createdAt,value
2023-07-10T00:01:30.732Z,10.70
2023-07-10T00:03:57.893Z,11.50
2023-07-10T00:06:25.468Z,11.63
2023-07-10T00:08:52.365Z,11.37
2023-07-10T00:11:23.180Z,11.97
2023-07-10T00:13:50.622Z,12.20
2023-07-10T00:16:21.086Z,10.90
2023-07-10T00:18:49.556Z,11.27
2023-07-10T00:21:16.875Z,11.60
2023-07-10T00:23:43.685Z,11.40
2023-07-10T00:26:23.377Z,12.40
2023-07-10T00:28:52.200Z,11.53
2023-07-10T00:31:19.137Z,11.57
2023-07-10T00:33:48.507Z,13.83
2023-07-10T00:36:28.392Z,12.17
2023-07-10T00:38:55.608Z,13.40
2023-07-10T00:41:30.479Z,12.30
2023-07-10T00:44:01.652Z,14.27
2023-07-10T00:46:40.033Z,13.33
2023-07-10T00:49:36.429Z,18.23
2023-07-10T00:52:19.499Z,14.07
2023-07-10T00:54:49.821Z,15.47
2023-07-10T00:57:23.321Z,19.70
2023-07-10T00:59:52.165Z,15.40
2023-07-10T01:02:21.551Z,14.20
2023-07-10T01:04:56.302Z,14.67
2023-07-10T01:07:25.586Z,13.97
2023-07-10T01:09:58.574Z,13.40
2023-07-10T01:12:27.335Z,13.63
2023-07-10T01:14:54.196Z,14.00
2023-07-10T01:17:21.218Z,13.60
2023-07-10T01:19:48.960Z,16.13
2023-07-10T01:22:16.740Z,16.10
2023-07-10T01:24:43.714Z,14.80
2023-07-10T01:27:14.227Z,15.97
2023-07-10T01:29:48.470Z,16.90
2023-07-10T01:32:20.874Z,18.47
2023-07-10T01:35:06.131Z,18.23
2023-07-10T01:37:33.066Z,19.30
2023-07-10T01:39:59.880Z,18.37
2023-07-10T01:42:26.838Z,18.27
2023-07-10T01:44:54.110Z,18.97
2023-07-10T01:47:21.663Z,18.37
2023-07-10T01:49:51.128Z,19.20
2023-07-10T01:52:20.626Z,20.30
2023-07-10T01:54:47.660Z,18.87
2023-07-10T01:57:16.273Z,17.27
2023-07-10T01:59:43.395Z,16.10
2023-07-10T02:02:10.501Z,17.10
2023-07-10T02:04:37.788Z,16.50
2023-07-10T02:07:05.120Z,16.80
2023-07-10T02:09:33.385Z,16.10
2023-07-10T02:12:02.104Z,15.17
2023-07-10T02:14:30.318Z,16.90
2023-07-10T02:16:57.145Z,17.37
2023-07-10T02:19:24.068Z,17.67
2023-07-10T02:21:51.298Z,17.20
2023-07-10T02:24:18.198Z,17.07
2023-07-10T02:26:45.262Z,17.33
2023-07-10T02:29:12.213Z,17.43
2023-07-10T02:31:39.106Z,15.87
2023-07-10T02:34:06.074Z,15.87
2023-07-10T02:36:34.494Z,14.40
2023-07-10T02:39:01.368Z,15.97
2023-07-10T02:41:28.278Z,14.73
2023-07-10T02:43:55.074Z,13.97
2023-07-10T02:46:21.998Z,13.87
2023-07-10T02:48:50.034Z,13.73
2023-07-10T02:51:16.908Z,14.40
2023-07-10T02:53:43.707Z,13.63
2023-07-10T02:56:10.572Z,13.47
2023-07-10T02:58:37.459Z,13.63
2023-07-10T03:01:04.808Z,14.13
2023-07-10T03:03:31.822Z,13.53
2023-07-10T03:06:03.642Z,14.37
2023-07-10T03:08:31.359Z,14.03
2023-07-10T03:11:07.157Z,14.90
2023-07-10T03:13:34.410Z,13.50
2023-07-10T03:16:10.120Z,13.90
2023-07-10T03:18:38.102Z,14.73
2023-07-10T03:21:05.728Z,15.73
2023-07-10T03:23:32.603Z,15.20
2023-07-10T03:25:59.570Z,16.10
2023-07-10T03:28:26.767Z,16.70
2023-07-10T03:30:53.640Z,15.87
2023-07-10T03:33:20.976Z,18.97
2023-07-10T03:35:49.985Z,20.40
2023-07-10T03:38:18.004Z,20.33
2023-07-10T03:40:56.977Z,19.40
2023-07-10T03:43:24.646Z,24.10
2023-07-10T03:45:52.042Z,21.23
2023-07-10T03:48:18.862Z,21.50
2023-07-10T03:50:46.178Z,22.07
2023-07-10T03:53:13.269Z,23.17
2023-07-10T03:55:51.936Z,22.20
2023-07-10T03:58:33.378Z,22.10
2023-07-10T04:01:01.779Z,22.63
2023-07-10T04:03:31.669Z,22.53
2023-07-10T04:05:59.590Z,25.10
2023-07-10T04:08:31.729Z,22.70
2023-07-10T04:11:04.231Z,24.07
2023-07-10T04:13:31.422Z,23.93
2023-07-10T04:16:21.914Z,23.00
2023-07-10T04:18:50.797Z,24.47
2023-07-10T04:21:20.889Z,23.07
2023-07-10T04:23:48.433Z,24.63
2023-07-10T04:26:17.075Z,21.10
2023-07-10T04:28:48.111Z,20.60
2023-07-10T04:31:16.310Z,21.73
2023-07-10T04:33:43.698Z,21.37
2023-07-10T04:36:10.643Z,19.70
2023-07-10T04:38:37.663Z,19.80
2023-07-10T04:41:06.907Z,17.80
2023-07-10T04:43:35.348Z,19.10
2023-07-10T04:46:05.296Z,22.10
2023-07-10T04:48:33.083Z,20.87
2023-07-10T04:51:04.859Z,21.93
2023-07-10T04:53:33.480Z,19.60
2023-07-10T04:56:03.066Z,20.20
2023-07-10T04:58:30.324Z,19.73
2023-07-10T05:00:59.162Z,21.43
2023-07-10T05:03:27.005Z,19.77
2023-07-10T05:05:57.909Z,19.10
2023-07-10T05:08:26.441Z,21.67
2023-07-10T05:10:55.518Z,17.77
2023-07-10T05:13:26.558Z,19.27
2023-07-10T05:15:56.274Z,19.07
2023-07-10T05:18:23.572Z,21.57
2023-07-10T05:20:50.537Z,20.23
2023-07-10T05:23:17.896Z,20.20
2023-07-10T05:26:06.807Z,21.43
2023-07-10T05:28:35.364Z,21.43
2023-07-10T05:31:05.602Z,22.60
2023-07-10T05:33:32.609Z,20.57
2023-07-10T05:36:03.683Z,23.27
2023-07-10T05:38:33.492Z,21.30
2023-07-10T05:41:01.179Z,19.47
2023-07-10T05:43:30.565Z,19.50
2023-07-10T05:45:57.807Z,16.70
2023-07-10T05:48:25.005Z,16.10
2023-07-10T05:50:52.027Z,19.20
2023-07-10T05:53:19.164Z,17.97
2023-07-10T05:55:48.125Z,16.80
2023-07-10T05:58:17.559Z,18.20
2023-07-10T06:00:44.942Z,16.70
2023-07-10T06:03:12.039Z,16.80
2023-07-10T06:05:39.086Z,15.13
2023-07-10T06:08:06.794Z,13.07
2023-07-10T06:10:36.888Z,13.03
2023-07-10T06:13:04.020Z,12.60
2023-07-10T06:15:31.528Z,12.50
2023-07-10T06:17:58.521Z,9.87
2023-07-10T06:20:25.347Z,10.70
2023-07-10T06:22:52.194Z,10.27
2023-07-10T06:25:19.024Z,10.40
2023-07-10T06:27:45.895Z,9.60
2023-07-10T06:30:12.963Z,9.80
2023-07-10T06:32:40.984Z,9.30
2023-07-10T06:35:08.188Z,9.67
2023-07-10T06:37:35.022Z,12.23
2023-07-10T06:40:06.296Z,9.90
2023-07-10T06:42:33.188Z,10.67
2023-07-10T06:44:59.993Z,10.37
2023-07-10T06:47:26.928Z,11.37
2023-07-10T06:49:53.951Z,11.53
2023-07-10T06:52:20.986Z,13.70
2023-07-10T06:54:47.876Z,12.30
2023-07-10T06:57:14.674Z,11.80
2023-07-10T06:59:41.440Z,11.83
2023-07-10T07:02:12.470Z,14.07
2023-07-10T07:04:39.652Z,11.50
2023-07-10T07:07:06.533Z,9.40
2023-07-10T07:09:33.363Z,7.37
2023-07-10T07:12:00.584Z,5.50
2023-07-10T07:14:28.051Z,5.97
2023-07-10T07:16:55.333Z,5.30
2023-07-10T07:19:22.264Z,4.57
2023-07-10T07:21:49.193Z,4.00
2023-07-10T07:24:16.340Z,4.93
2023-07-10T07:26:43.559Z,4.77
2023-07-10T07:29:10.760Z,5.00
2023-07-10T07:31:40.711Z,4.80
2023-07-10T07:34:07.749Z,5.63
2023-07-10T07:36:35.683Z,7.00
2023-07-10T07:39:04.267Z,6.17
2023-07-10T07:41:35.262Z,7.33
2023-07-10T07:44:02.887Z,5.10
2023-07-10T07:46:30.515Z,5.07
2023-07-10T07:48:57.881Z,5.20
2023-07-10T07:51:24.684Z,5.70
2023-07-10T07:54:06.648Z,6.60
2023-07-10T07:56:33.815Z,5.20
2023-07-10T07:59:00.831Z,5.50
2023-07-10T08:01:27.842Z,7.07
2023-07-10T08:03:54.861Z,8.10
2023-07-10T08:06:22.301Z,8.53
2023-07-10T08:08:49.165Z,10.17
2023-07-10T08:11:17.139Z,9.33
2023-07-10T08:13:44.700Z,7.13
2023-07-10T08:16:11.673Z,7.60
2023-07-10T08:18:38.523Z,6.93
2023-07-10T08:21:07.087Z,7.00
2023-07-10T08:23:34.310Z,7.87
2023-07-10T08:26:02.370Z,6.70
2023-07-10T08:28:29.755Z,6.50
2023-07-10T08:30:56.573Z,7.83
2023-07-10T08:33:23.420Z,7.00
2023-07-10T08:35:56.873Z,7.77
2023-07-10T08:38:24.040Z,9.10
2023-07-10T08:40:53.619Z,9.60
2023-07-10T08:43:26.885Z,8.67
2023-07-10T08:46:02.693Z,7.47
2023-07-10T08:48:37.636Z,7.37
2023-07-10T08:51:30.740Z,6.37
2023-07-10T08:54:07.705Z,6.70
2023-07-10T08:56:43.703Z,6.30
2023-07-10T08:59:36.453Z,8.10
2023-07-10T09:02:04.133Z,8.57
2023-07-10T09:04:32.751Z,9.50
2023-07-10T09:07:02.700Z,10.33
2023-07-10T09:09:35.599Z,8.93
2023-07-10T09:12:13.624Z,9.40
2023-07-10T09:14:47.675Z,8.87
2023-07-10T09:17:24.925Z,8.57
2023-07-10T09:19:55.005Z,7.77
2023-07-10T09:22:22.558Z,6.00
2023-07-10T09:24:49.390Z,6.73
2023-07-10T09:27:16.306Z,5.20
2023-07-10T09:29:46.356Z,4.93
2023-07-10T09:32:19.119Z,4.70
2023-07-10T09:34:55.301Z,4.20
2023-07-10T09:37:27.366Z,4.57
2023-07-10T09:39:54.259Z,3.00
2023-07-10T09:42:27.581Z,3.33
2023-07-10T09:44:56.203Z,4.33
2023-07-10T09:47:23.983Z,4.00
2023-07-10T09:49:57.683Z,3.43
2023-07-10T09:52:28.951Z,3.33
2023-07-10T09:55:16.583Z,2.50
2023-07-10T09:58:02.182Z,3.20
2023-07-10T10:00:31.703Z,3.47
2023-07-10T10:03:13.317Z,4.07
2023-07-10T10:05:43.288Z,3.67
2023-07-10T10:08:22.085Z,3.50
2023-07-10T10:11:07.711Z,2.40
2023-07-10T10:13:44.144Z,3.23
2023-07-10T10:16:23.326Z,3.13
2023-07-10T10:18:58.941Z,3.60
2023-07-10T10:21:33.890Z,3.10
2023-07-10T10:24:06.632Z,3.47
2023-07-10T10:26:39.569Z,4.30
2023-07-10T10:29:29.226Z,3.73
2023-07-10T10:32:10.071Z,3.53
2023-07-10T10:34:50.622Z,3.13
2023-07-10T10:37:36.420Z,4.73
2023-07-10T10:40:24.436Z,4.90
2023-07-10T10:42:57.634Z,3.47
2023-07-10T10:45:47.180Z,3.63
2023-07-10T10:48:27.053Z,2.60
2023-07-10T10:51:08.416Z,2.60
2023-07-10T10:53:57.380Z,2.30
2023-07-10T10:56:27.092Z,2.67
2023-07-10T10:59:13.637Z,2.70
2023-07-10T11:01:46.539Z,2.13
2023-07-10T11:04:37.385Z,2.37
2023-07-10T11:07:11.984Z,1.80
2023-07-10T11:09:43.613Z,1.83
2023-07-10T11:12:32.737Z,2.37
2023-07-10T11:15:17.554Z,3.00
2023-07-10T11:17:47.970Z,2.50
2023-07-10T11:20:17.065Z,2.20
2023-07-10T11:22:52.307Z,2.43
2023-07-10T11:25:40.987Z,2.00
2023-07-10T11:28:21.252Z,1.63
2023-07-10T11:31:11.113Z,2.40
2023-07-10T11:33:37.939Z,1.87
2023-07-10T11:36:18.295Z,1.67
2023-07-10T11:39:07.193Z,1.80
2023-07-10T11:41:39.036Z,2.50
2023-07-10T11:44:22.703Z,2.27
2023-07-10T11:47:09.833Z,2.47
2023-07-10T11:49:37.090Z,2.03
2023-07-10T11:52:16.328Z,2.40
2023-07-10T11:54:44.868Z,1.77
2023-07-10T11:57:23.798Z,2.03
2023-07-10T11:59:57.280Z,1.80
2023-07-10T12:02:52.888Z,1.87
2023-07-10T12:05:24.312Z,2.80
2023-07-10T12:08:00.413Z,2.00
2023-07-10T12:10:32.333Z,2.20
2023-07-10T12:13:24.134Z,1.97
2023-07-10T12:15:53.967Z,1.87
2023-07-10T12:18:26.864Z,1.50
2023-07-10T12:20:54.933Z,2.40
2023-07-10T12:23:22.346Z,2.10
2023-07-10T12:25:54.602Z,2.30
2023-07-10T12:28:27.823Z,2.20
2023-07-10T12:30:58.518Z,2.50
2023-07-10T12:33:41.721Z,2.23
2023-07-10T12:36:29.947Z,2.40
2023-07-10T12:39:00.399Z,2.37
2023-07-10T12:41:38.803Z,2.20
2023-07-10T12:44:06.532Z,3.70
2023-07-10T12:46:35.475Z,2.73
2023-07-10T12:49:11.049Z,2.70
2023-07-10T12:51:43.050Z,2.53
2023-07-10T12:54:32.080Z,1.73
2023-07-10T12:56:59.143Z,2.03
2023-07-10T12:59:25.962Z,2.30
2023-07-10T13:02:15.200Z,1.97
2023-07-10T13:04:48.585Z,2.00
2023-07-10T13:07:29.329Z,2.13
2023-07-10T13:10:21.544Z,2.20
2023-07-10T13:12:51.104Z,1.73
2023-07-10T13:15:19.465Z,1.80
2023-07-10T13:17:54.366Z,1.60
2023-07-10T13:20:25.117Z,1.43
2023-07-10T13:22:53.469Z,2.90
2023-07-10T13:25:20.393Z,1.23
2023-07-10T13:27:47.384Z,2.10
2023-07-10T13:30:19.053Z,2.20
2023-07-10T13:32:46.282Z,1.30
2023-07-10T13:35:14.191Z,1.80
2023-07-10T13:37:41.436Z,1.40
2023-07-10T13:40:16.491Z,1.53
2023-07-10T13:42:43.327Z,1.60
2023-07-10T13:45:10.557Z,2.83
2023-07-10T13:47:37.684Z,1.63
2023-07-10T13:50:05.089Z,1.63
2023-07-10T13:52:32.700Z,1.70
2023-07-10T13:54:59.618Z,1.47
2023-07-10T13:57:30.445Z,1.40
2023-07-10T14:00:00.734Z,1.80
2023-07-10T14:02:29.803Z,1.40
2023-07-10T14:04:58.147Z,1.20
2023-07-10T14:07:27.370Z,2.40
2023-07-10T14:09:55.453Z,2.43
2023-07-10T14:12:27.889Z,1.90
2023-07-10T14:14:57.509Z,3.47
2023-07-10T14:17:32.534Z,2.17
2023-07-10T14:20:00.453Z,1.90
2023-07-10T14:22:27.602Z,1.60
2023-07-10T14:24:54.718Z,2.00
2023-07-10T14:27:24.536Z,1.90
2023-07-10T14:29:53.293Z,1.80
2023-07-10T14:32:26.366Z,1.97
2023-07-10T14:34:53.186Z,2.03
2023-07-10T14:37:27.420Z,2.00
2023-07-10T14:39:54.632Z,1.47
2023-07-10T14:42:25.434Z,2.00
2023-07-10T14:44:52.649Z,1.40
2023-07-10T14:47:29.966Z,1.80
2023-07-10T14:49:56.850Z,1.90
2023-07-10T14:52:27.496Z,2.23
2023-07-10T14:54:57.986Z,1.67
2023-07-10T14:57:36.404Z,1.90
2023-07-10T15:00:22.150Z,2.50
2023-07-10T15:02:49.285Z,1.37
2023-07-10T15:05:16.494Z,3.00
2023-07-10T15:07:44.831Z,2.90
2023-07-10T15:10:26.568Z,2.03
2023-07-10T15:13:01.391Z,2.30
2023-07-10T15:15:36.736Z,1.97
2023-07-10T15:18:05.040Z,1.90
2023-07-10T15:20:31.973Z,2.40
2023-07-10T15:22:58.843Z,1.80
2023-07-10T15:25:30.204Z,1.60
2023-07-10T15:27:57.290Z,1.97
2023-07-10T15:30:27.778Z,2.97
2023-07-10T15:32:55.102Z,2.77
2023-07-10T15:35:23.507Z,2.10
2023-07-10T15:37:50.389Z,2.00
2023-07-10T15:40:19.695Z,2.23
2023-07-10T15:42:48.663Z,2.83
2023-07-10T15:45:17.858Z,1.80
2023-07-10T15:47:50.561Z,1.70
2023-07-10T15:50:18.930Z,3.20
2023-07-10T15:52:49.824Z,1.80
2023-07-10T15:55:36.084Z,2.37
2023-07-10T15:58:05.836Z,2.57
2023-07-10T16:00:38.733Z,1.70
2023-07-10T16:03:35.005Z,2.27
2023-07-10T16:06:04.355Z,2.10
2023-07-10T16:08:35.830Z,2.30
2023-07-10T16:11:15.890Z,1.90
2023-07-10T16:13:43.626Z,1.93
2023-07-10T16:16:10.857Z,1.63
2023-07-10T16:18:37.933Z,1.90
2023-07-10T16:21:20.924Z,1.80
2023-07-10T16:23:48.016Z,2.53
2023-07-10T16:26:16.649Z,2.07
2023-07-10T16:28:43.796Z,2.30
2023-07-10T16:31:16.594Z,2.53
2023-07-10T16:33:44.279Z,2.07
2023-07-10T16:36:15.878Z,1.80
2023-07-10T16:38:43.055Z,1.93
2023-07-10T16:41:21.152Z,2.80
2023-07-10T16:43:48.980Z,2.27
2023-07-10T16:46:16.921Z,2.20
2023-07-10T16:48:45.423Z,1.50
2023-07-10T16:51:23.045Z,2.07
2023-07-10T16:53:50.401Z,1.67
2023-07-10T16:56:20.036Z,2.30
2023-07-10T16:58:47.250Z,1.20
2023-07-10T17:01:28.909Z,1.60
2023-07-10T17:03:59.264Z,2.07
2023-07-10T17:06:28.685Z,1.67
2023-07-10T17:08:56.052Z,1.93
2023-07-10T17:11:31.970Z,2.30
2023-07-10T17:14:00.025Z,2.40
2023-07-10T17:16:27.667Z,2.00
2023-07-10T17:18:54.565Z,2.50
2023-07-10T17:21:21.772Z,1.70
2023-07-10T17:23:48.640Z,1.97
2023-07-10T17:26:20.287Z,1.93
2023-07-10T17:28:48.268Z,1.40
2023-07-10T17:31:20.113Z,2.23
2023-07-10T17:33:49.571Z,1.47
2023-07-10T17:36:18.093Z,1.70
2023-07-10T17:38:45.284Z,1.60
2023-07-10T17:41:21.816Z,1.97
2023-07-10T17:43:58.593Z,1.77
2023-07-10T17:46:25.671Z,2.07
2023-07-10T17:48:52.926Z,1.60
2023-07-10T17:51:29.660Z,2.00
2023-07-10T17:53:57.776Z,1.87
2023-07-10T17:56:25.923Z,1.93
2023-07-10T17:58:56.370Z,1.63
2023-07-10T18:01:26.492Z,1.50
2023-07-10T18:03:57.721Z,1.97
2023-07-10T18:06:25.694Z,2.40
2023-07-10T18:08:52.772Z,1.77
2023-07-10T18:11:32.720Z,1.70
2023-07-10T18:14:00.496Z,1.50
2023-07-10T18:16:27.633Z,1.50
2023-07-10T18:18:54.478Z,2.20
2023-07-10T18:21:30.166Z,1.87
2023-07-10T18:23:59.226Z,1.30
2023-07-10T18:26:29.401Z,1.77
2023-07-10T18:28:57.008Z,1.40
2023-07-10T18:31:28.948Z,1.47
2023-07-10T18:33:56.412Z,2.77
2023-07-10T18:36:25.590Z,1.77
2023-07-10T18:38:53.064Z,1.60
2023-07-10T18:41:23.772Z,1.33
2023-07-10T18:43:52.935Z,1.93
2023-07-10T18:46:22.698Z,1.80
2023-07-10T18:48:50.079Z,1.80
2023-07-10T18:51:24.250Z,1.70
2023-07-10T18:53:52.516Z,2.00
2023-07-10T18:56:19.981Z,1.40
2023-07-10T18:58:48.351Z,1.60
2023-07-10T19:01:20.352Z,1.57
2023-07-10T19:03:47.933Z,1.53
2023-07-10T19:06:28.360Z,1.60
2023-07-10T19:08:55.673Z,1.60
2023-07-10T19:11:22.543Z,1.90
2023-07-10T19:13:49.522Z,1.40
2023-07-10T19:16:28.714Z,1.97
2023-07-10T19:19:00.187Z,1.90
2023-07-10T19:21:28.139Z,2.10
2023-07-10T19:23:55.149Z,2.33
2023-07-10T19:26:23.309Z,2.00
2023-07-10T19:28:51.225Z,2.40
2023-07-10T19:31:22.589Z,1.90
2023-07-10T19:33:50.913Z,1.87
2023-07-10T19:36:29.525Z,2.33
2023-07-10T19:38:57.688Z,1.73
2023-07-10T19:41:24.877Z,2.50
2023-07-10T19:43:51.745Z,2.27
2023-07-10T19:46:22.450Z,2.40
2023-07-10T19:48:49.472Z,2.20
2023-07-10T19:51:16.796Z,1.87
2023-07-10T19:53:43.795Z,2.20
2023-07-10T19:56:21.842Z,2.27
2023-07-10T19:58:51.443Z,2.00
2023-07-10T20:01:19.854Z,2.40
2023-07-10T20:03:47.353Z,2.00
2023-07-10T20:06:27.098Z,2.70
2023-07-10T20:08:53.984Z,2.17
2023-07-10T20:11:22.223Z,2.00
2023-07-10T20:13:49.259Z,2.50
2023-07-10T20:16:25.266Z,2.20
2023-07-10T20:18:52.831Z,2.63
2023-07-10T20:21:19.783Z,2.30
2023-07-10T20:23:46.624Z,2.80
2023-07-10T20:26:16.770Z,2.90
2023-07-10T20:28:44.526Z,2.20
2023-07-10T20:31:13.453Z,2.20
2023-07-10T20:33:40.999Z,2.40
2023-07-10T20:36:22.361Z,2.00
2023-07-10T20:38:51.644Z,1.83
2023-07-10T20:41:21.153Z,2.00
2023-07-10T20:43:49.248Z,2.03
2023-07-10T20:46:22.567Z,2.70
2023-07-10T20:48:53.188Z,2.20
2023-07-10T20:51:27.996Z,2.23
2023-07-10T20:53:56.971Z,2.43
2023-07-10T20:56:28.275Z,2.17
2023-07-10T20:58:57.217Z,2.00
2023-07-10T21:01:26.618Z,2.40
2023-07-10T21:03:53.830Z,2.67
2023-07-10T21:06:26.456Z,3.17
2023-07-10T21:08:55.619Z,2.13
2023-07-10T21:11:25.196Z,2.40
2023-07-10T21:13:53.814Z,2.10
2023-07-10T21:16:23.900Z,2.90
2023-07-10T21:18:51.574Z,1.90
2023-07-10T21:21:18.970Z,2.40
2023-07-10T21:23:47.432Z,2.80
2023-07-10T21:26:23.046Z,2.17
2023-07-10T21:28:52.660Z,2.63
2023-07-10T21:31:25.474Z,2.80
2023-07-10T21:33:54.633Z,2.50
2023-07-10T21:36:22.568Z,2.20
2023-07-10T21:38:49.915Z,2.30
2023-07-10T21:41:27.058Z,3.27
2023-07-10T21:43:55.652Z,1.97
2023-07-10T21:46:32.913Z,3.80
2023-07-10T21:49:00.417Z,2.43
2023-07-10T21:51:28.636Z,2.70
2023-07-10T21:53:55.660Z,2.40
2023-07-10T21:56:28.131Z,1.93
2023-07-10T21:59:00.818Z,2.30
2023-07-10T22:01:30.636Z,2.60
2023-07-10T22:03:58.414Z,2.13
2023-07-10T22:06:27.861Z,2.30
2023-07-10T22:08:54.776Z,4.20
2023-07-10T22:11:27.103Z,2.70
2023-07-10T22:13:54.160Z,2.83
2023-07-10T22:16:26.676Z,2.60
2023-07-10T22:18:55.187Z,2.30
2023-07-10T22:21:24.285Z,2.30
2023-07-10T22:23:51.131Z,2.80
2023-07-10T22:26:18.647Z,2.23
2023-07-10T22:28:46.306Z,2.67
2023-07-10T22:31:20.057Z,2.00
2023-07-10T22:33:47.602Z,2.33
2023-07-10T22:36:16.092Z,2.53
2023-07-10T22:38:44.100Z,2.90
2023-07-10T22:41:21.204Z,2.73
2023-07-10T22:43:50.512Z,2.87
2023-07-10T22:46:28.382Z,2.50
2023-07-10T22:49:00.073Z,3.00
2023-07-10T22:51:30.987Z,3.20
2023-07-10T22:53:59.186Z,4.40
2023-07-10T22:56:29.789Z,3.10
2023-07-10T22:58:56.972Z,2.87
2023-07-10T23:01:25.215Z,3.00
2023-07-10T23:03:53.655Z,2.60
2023-07-10T23:06:22.145Z,3.10
2023-07-10T23:08:50.332Z,2.30
2023-07-10T23:11:17.454Z,2.70
2023-07-10T23:13:47.557Z,2.43
2023-07-10T23:16:17.141Z,2.63
2023-07-10T23:18:53.028Z,2.80
2023-07-10T23:21:20.645Z,3.20
2023-07-10T23:23:47.406Z,2.53
2023-07-10T23:26:16.417Z,2.37
2023-07-10T23:28:43.194Z,2.67
2023-07-10T23:31:25.024Z,2.63
2023-07-10T23:33:52.370Z,2.47
2023-07-10T23:36:21.060Z,2.50
2023-07-10T23:38:48.171Z,3.03
2023-07-10T23:41:15.983Z,3.20
2023-07-10T23:43:43.205Z,2.70
2023-07-10T23:46:10.471Z,2.90
2023-07-10T23:48:37.460Z,2.87
2023-07-10T23:51:04.601Z,2.67
2023-07-10T23:53:31.849Z,3.10
2023-07-10T23:55:59.159Z,3.60
2023-07-10T23:58:26.355Z,3.50
